Time;durP1;ratioP1;P1;durP2;ratioP2;P2;SDS_P1;SDS_P2;PMS_P1;PMS_P2;Temp;Humidity;BMP_temperature;BMP_pressure;BME280_temperature;BME280_humidity;BME280_pressure;Samples;Min_cycle;Max_cycle;Signal;HPM_P1;HPM_P2
2021/09/16 00:00:40;;;;;;;8.25;2.40;;;;;;;16.59;72.22;101418.53;4973263;28;20411;-64
2021/09/16 00:03:08;;;;;;;4.10;1.95;;;;;;;16.58;72.17;101419.66;4974333;28;20114;-64
2021/09/16 00:05:35;;;;;;;10.98;2.10;;;;;;;16.52;72.41;101423.59;4974321;28;20079;-64
2021/09/16 00:08:03;;;;;;;6.00;2.05;;;;;;;16.50;72.55;101425.84;4972736;28;20405;-64
2021/09/16 00:10:31;;;;;;;5.57;1.98;;;;;;;16.48;72.26;101424.50;4963694;28;20047;-64
2021/09/16 00:12:58;;;;;;;6.57;2.20;;;;;;;16.45;72.60;101423.16;4974024;28;20050;-64
2021/09/16 00:15:26;;;;;;;7.93;2.35;;;;;;;16.46;72.64;101422.03;4974265;28;20498;-64
2021/09/16 00:17:53;;;;;;;5.40;2.05;;;;;;;16.49;72.43;101426.94;4966804;28;20094;-64
2021/09/16 00:20:21;;;;;;;9.38;2.10;;;;;;;16.44;73.22;101424.25;4973848;28;20057;-64
2021/09/16 00:22:48;;;;;;;9.48;2.67;;;;;;;16.45;72.47;101425.06;4974260;28;20410;-64
2021/09/16 00:25:16;;;;;;;12.43;1.92;;;;;;;16.38;73.07;101430.94;4973513;28;20046;-64
2021/09/16 00:27:44;;;;;;;4.78;2.03;;;;;;;16.33;73.55;101428.22;4972817;28;20078;-65
2021/09/16 00:30:12;;;;;;;4.93;1.90;;;;;;;16.34;73.68;101432.63;4971168;28;20498;-64
2021/09/16 00:32:40;;;;;;;5.25;2.20;;;;;;;16.34;73.61;101435.38;4974001;28;20158;-64
2021/09/16 00:35:08;;;;;;;7.55;2.00;;;;;;;16.34;73.14;101436.19;4973616;28;20055;-64
2021/09/16 00:37:36;;;;;;;4.45;1.90;;;;;;;16.36;73.33;101427.66;4967056;28;20403;-64
2021/09/16 00:40:06;;;;;;;6.13;2.25;;;;;;;16.40;73.98;101434.19;4968033;28;20071;-64
2021/09/16 00:42:33;;;;;;;7.28;2.30;;;;;;;16.39;73.67;101427.88;4972184;28;20058;-65
2021/09/16 00:45:01;;;;;;;5.28;2.30;;;;;;;16.39;73.42;101430.63;4972354;28;20081;-64
2021/09/16 00:47:29;;;;;;;5.07;2.13;;;;;;;16.39;73.13;101427.06;4972587;28;20039;-65
2021/09/16 00:49:57;;;;;;;5.32;2.17;;;;;;;16.38;73.48;101425.44;4971509;28;20383;-65
2021/09/16 00:52:25;;;;;;;9.15;2.67;;;;;;;16.38;73.51;101433.69;4972882;28;20047;-63
2021/09/16 00:54:54;;;;;;;5.25;2.35;;;;;;;16.27;72.99;101429.38;4973156;28;20464;-64
2021/09/16 00:57:23;;;;;;;6.82;2.17;;;;;;;16.23;73.88;101428.31;4967009;28;20482;-64
2021/09/16 00:59:51;;;;;;;7.25;2.25;;;;;;;16.15;73.38;101424.28;4971603;28;20113;-64
2021/09/16 01:02:19;;;;;;;6.72;2.20;;;;;;;16.15;73.96;101427.03;4972465;28;20070;-64
2021/09/16 01:04:47;;;;;;;7.93;2.20;;;;;;;16.11;74.25;101421.28;4973003;28;20050;-64
2021/09/16 01:07:14;;;;;;;6.70;2.65;;;;;;;16.10;73.91;101425.16;4972680;28;20075;-64
2021/09/16 01:09:43;;;;;;;5.38;2.17;;;;;;;16.11;74.29;101426.78;4969296;28;20050;-64
2021/09/16 01:12:11;;;;;;;8.07;2.42;;;;;;;16.11;73.96;101428.72;4973354;28;20043;-64
2021/09/16 01:14:38;;;;;;;5.22;2.00;;;;;;;16.11;74.65;101432.28;4972949;28;20109;-64
2021/09/16 01:17:06;;;;;;;6.50;2.80;;;;;;;16.09;74.35;101439.19;4965738;28;20075;-61
2021/09/16 01:19:34;;;;;;;10.45;2.85;;;;;;;16.10;74.23;101441.66;4965745;28;20047;-63
2021/09/16 01:22:02;;;;;;;6.68;2.35;;;;;;;16.10;74.21;101436.16;4973136;28;20126;-65
2021/09/16 01:24:29;;;;;;;9.40;2.90;;;;;;;16.10;74.50;101433.41;4939522;28;20058;-64
2021/09/16 01:26:57;;;;;;;6.55;2.58;;;;;;;16.09;74.26;101431.78;4972142;28;20502;-64
2021/09/16 01:29:25;;;;;;;6.88;2.70;;;;;;;16.06;73.97;101432.34;4964288;28;20501;-64
2021/09/16 01:31:52;;;;;;;11.20;3.22;;;;;;;15.98;74.41;101432.97;4972845;28;20093;-64
2021/09/16 01:34:20;;;;;;;6.25;2.80;;;;;;;15.94;74.38;101438.22;4972928;28;20042;-64
2021/09/16 01:36:49;;;;;;;4.97;2.40;;;;;;;15.93;74.88;101442.09;4952261;29;20039;-64
2021/09/16 01:39:18;;;;;;;4.70;2.30;;;;;;;15.92;74.67;101443.22;4947621;29;20111;-65
2021/09/16 01:41:45;;;;;;;6.45;2.45;;;;;;;15.91;74.74;101435.25;4948584;29;20032;-64
2021/09/16 01:44:14;;;;;;;5.90;2.60;;;;;;;15.91;74.94;101440.75;4953482;28;20049;-65
2021/09/16 01:46:43;;;;;;;6.20;2.40;;;;;;;15.89;75.02;101440.19;4952392;29;20097;-64
2021/09/16 01:49:11;;;;;;;3.88;2.05;;;;;;;15.92;75.14;101437.72;4934289;29;20106;-64
2021/09/16 01:51:39;;;;;;;6.05;2.47;;;;;;;15.90;75.32;101437.19;4948918;28;20067;-64
2021/09/16 01:54:07;;;;;;;7.03;2.50;;;;;;;15.88;75.08;101442.13;4962422;28;20047;-64
2021/09/16 01:56:35;;;;;;;5.60;2.00;;;;;;;15.89;75.45;101446.50;4953267;28;20047;-64
2021/09/16 01:59:03;;;;;;;8.93;2.35;;;;;;;15.91;75.01;101438.00;4952122;28;20521;-65
2021/09/16 02:01:31;;;;;;;7.15;2.58;;;;;;;15.90;74.89;101444.59;4952542;28;20833;-64
2021/09/16 02:03:59;;;;;;;8.63;2.85;;;;;;;15.89;74.72;101445.69;4956237;29;20047;-65
2021/09/16 02:06:27;;;;;;;4.95;2.17;;;;;;;15.85;75.18;101444.63;4956783;28;20047;-65
2021/09/16 02:08:54;;;;;;;5.50;2.45;;;;;;;15.84;75.43;101451.25;4956780;29;20047;-65
2021/09/16 02:11:22;;;;;;;6.93;2.38;;;;;;;15.88;76.56;101444.88;4953565;28;20055;-65
2021/09/16 02:13:50;;;;;;;6.10;2.30;;;;;;;15.92;76.45;101442.38;4957107;28;20043;-64
2021/09/16 02:16:17;;;;;;;8.02;2.95;;;;;;;15.97;77.69;101440.41;4956998;28;20055;-64
2021/09/16 02:18:45;;;;;;;7.25;2.83;;;;;;;15.96;76.73;101446.19;4956824;29;20079;-64
2021/09/16 02:21:13;;;;;;;7.13;2.40;;;;;;;15.87;76.29;101456.16;4948568;29;20083;-64
2021/09/16 02:23:40;;;;;;;7.78;2.67;;;;;;;15.85;77.37;101461.13;4950245;29;20410;-64
2021/09/16 02:26:08;;;;;;;7.78;2.60;;;;;;;15.79;76.82;101452.09;4956522;28;20575;-64
2021/09/16 02:28:36;;;;;;;6.45;2.67;;;;;;;15.75;76.60;101451.88;4956755;29;20418;-65
2021/09/16 02:31:03;;;;;;;4.35;2.33;;;;;;;15.84;77.95;101456.75;4954871;29;20162;-64
2021/09/16 02:33:32;;;;;;;5.28;2.50;;;;;;;15.75;76.73;101462.03;4948977;28;20108;-65
2021/09/16 02:36:00;;;;;;;9.50;2.80;;;;;;;15.70;76.34;101451.88;4968854;28;20104;-65
2021/09/16 02:38:29;;;;;;;6.72;2.92;;;;;;;15.70;76.24;101454.63;4974429;28;20093;-64
2021/09/16 02:40:57;;;;;;;6.97;2.65;;;;;;;15.68;76.52;101456.00;4975965;28;20046;-64
2021/09/16 02:43:25;;;;;;;6.28;2.75;;;;;;;15.67;76.68;101455.19;4969002;28;20039;-63
2021/09/16 02:45:52;;;;;;;9.73;3.10;;;;;;;15.66;76.36;101458.25;4975610;28;20051;-65
2021/09/16 02:48:20;;;;;;;6.70;3.00;;;;;;;15.65;76.20;101457.41;4975862;28;20532;-64
2021/09/16 02:50:48;;;;;;;4.93;2.58;;;;;;;15.64;76.58;101461.25;4975690;28;20413;-64
2021/09/16 02:53:16;;;;;;;7.28;3.10;;;;;;;15.58;76.13;101473.38;4972084;28;20508;-65
2021/09/16 02:55:43;;;;;;;5.72;2.35;;;;;;;15.58;76.46;101472.56;4967520;28;20536;-64
2021/09/16 02:58:11;;;;;;;8.68;2.88;;;;;;;15.58;76.60;101473.38;4974003;28;20524;-64
2021/09/16 03:00:39;;;;;;;7.35;3.15;;;;;;;15.60;76.68;101478.59;4975670;28;20074;-65
2021/09/16 03:03:08;;;;;;;4.68;2.83;;;;;;;15.60;77.07;101471.19;4974751;28;20047;-64
2021/09/16 03:05:37;;;;;;;6.25;2.78;;;;;;;15.60;76.95;101473.91;4973556;28;20046;-65
2021/09/16 03:08:05;;;;;;;7.10;2.40;;;;;;;15.57;76.68;101488.22;4958125;28;20528;-63
2021/09/16 03:10:33;;;;;;;9.73;2.90;;;;;;;15.62;77.28;101495.63;4975145;28;20517;-65
2021/09/16 03:13:00;;;;;;;7.82;3.00;;;;;;;15.56;77.10;101486.56;4974856;28;20047;-64
2021/09/16 03:15:28;;;;;;;5.80;2.63;;;;;;;15.52;77.28;101491.03;4964109;28;20054;-64
2021/09/16 03:17:56;;;;;;;8.15;2.97;;;;;;;15.53;77.16;101492.66;4975283;28;20047;-64
2021/09/16 03:20:24;;;;;;;6.18;2.85;;;;;;;15.53;77.07;101493.47;4974506;28;20038;-64
2021/09/16 03:22:51;;;;;;;8.48;3.00;;;;;;;15.52;76.88;101499.25;4975136;28;20498;-64
2021/09/16 03:25:19;;;;;;;6.78;2.88;;;;;;;15.52;77.06;101496.50;4967585;28;20494;-64
2021/09/16 03:27:47;;;;;;;4.38;2.70;;;;;;;15.54;77.26;101499.81;4975422;28;20445;-65
2021/09/16 03:30:15;;;;;;;6.88;2.92;;;;;;;15.55;77.04;101501.44;4974893;28;20502;-64
2021/09/16 03:32:43;;;;;;;9.50;3.40;;;;;;;15.55;77.66;101504.19;4973909;28;20050;-64
2021/09/16 03:35:11;;;;;;;6.07;2.63;;;;;;;15.58;78.13;101502.78;4973176;28;20082;-61
2021/09/16 03:37:40;;;;;;;7.97;2.78;;;;;;;15.55;77.54;101501.44;4973746;28;20049;-64
2021/09/16 03:40:08;;;;;;;10.63;3.08;;;;;;;15.51;77.28;101497.59;4974884;28;20066;-64
2021/09/16 03:42:36;;;;;;;6.07;2.80;;;;;;;15.49;77.50;101502.56;4974657;28;20054;-64
2021/09/16 03:45:04;;;;;;;10.90;3.20;;;;;;;15.50;77.77;101493.22;4965026;28;20078;-64
2021/09/16 03:47:32;;;;;;;6.82;2.95;;;;;;;15.46;77.21;101498.44;4972145;28;20038;-64
2021/09/16 03:50:00;;;;;;;9.20;3.00;;;;;;;15.43;77.64;101493.53;4974321;28;20125;-64
2021/09/16 03:52:28;;;;;;;6.90;3.20;;;;;;;15.44;77.83;101495.19;4974390;28;20528;-64
2021/09/16 03:54:56;;;;;;;5.75;2.65;;;;;;;15.48;77.91;101500.94;4972448;28;20084;-64
2021/09/16 03:57:24;;;;;;;8.13;3.13;;;;;;;15.45;77.56;101496.81;4958455;28;20495;-64
2021/09/16 03:59:51;;;;;;;6.93;3.40;;;;;;;15.45;77.94;101504.25;4973437;28;20498;-64
2021/09/16 04:02:19;;;;;;;5.57;2.67;;;;;;;15.43;77.56;101504.53;4974363;28;20047;-65
2021/09/16 04:04:47;;;;;;;7.00;3.08;;;;;;;15.43;77.77;101504.53;4971206;28;20043;-64
2021/09/16 04:07:15;;;;;;;7.45;3.10;;;;;;;15.42;77.80;101502.06;4974270;28;20050;-64
2021/09/16 04:09:43;;;;;;;7.50;2.92;;;;;;;15.39;78.34;101500.69;4972978;28;20502;-63
2021/09/16 04:12:11;;;;;;;8.05;3.25;;;;;;;15.31;78.17;101501.31;4973285;28;20061;-64
2021/09/16 04:14:39;;;;;;;6.18;3.38;;;;;;;15.30;78.16;101505.16;4973034;28;20140;-64
2021/09/16 04:17:07;;;;;;;5.40;3.00;;;;;;;15.27;77.97;101498.31;4974194;28;20546;-64
2021/09/16 04:19:35;;;;;;;8.60;3.47;;;;;;;15.26;78.13;101502.16;4973474;28;20046;-63
2021/09/16 04:22:03;;;;;;;8.60;3.80;;;;;;;15.25;78.53;101496.94;4974321;28;20049;-63
2021/09/16 04:24:31;;;;;;;7.75;3.60;;;;;;;15.25;78.14;101507.91;4965422;28;20035;-64
2021/09/16 04:26:59;;;;;;;5.55;3.20;;;;;;;15.24;78.09;101501.59;4970661;28;20101;-64
2021/09/16 04:29:27;;;;;;;7.38;3.22;;;;;;;15.23;78.27;101508.22;4974009;28;20038;-64
2021/09/16 04:31:56;;;;;;;9.43;3.83;;;;;;;15.21;78.62;101510.41;4972200;28;20043;-64
2021/09/16 04:34:23;;;;;;;11.15;3.78;;;;;;;15.23;78.44;101504.66;4970927;28;20050;-64
2021/09/16 04:36:51;;;;;;;5.30;2.60;;;;;;;15.21;78.66;101506.84;4967256;28;20090;-64
2021/09/16 04:39:19;;;;;;;7.70;2.85;;;;;;;15.19;78.58;101509.88;4973795;28;20118;-64
2021/09/16 04:41:47;;;;;;;7.70;3.40;;;;;;;15.19;78.79;101511.81;4973828;28;20505;-63
2021/09/16 04:44:15;;;;;;;6.47;3.65;;;;;;;15.18;78.80;101518.41;4988709;28;20041;-63
2021/09/16 04:46:45;;;;;;;9.23;3.78;;;;;;;15.16;79.01;101515.94;4982431;28;20553;-63
2021/09/16 04:49:13;;;;;;;12.50;3.97;;;;;;;15.13;78.70;101511.00;4972079;28;20042;-63
2021/09/16 04:51:41;;;;;;;7.20;3.30;;;;;;;15.13;78.82;101513.75;4973462;28;20042;-63
2021/09/16 04:54:09;;;;;;;8.15;2.95;;;;;;;15.19;79.90;101509.88;4971708;28;20397;-63
2021/09/16 04:56:36;;;;;;;5.65;2.50;;;;;;;15.19;78.99;101514.53;4965997;28;20521;-64
2021/09/16 04:59:04;;;;;;;7.25;3.40;;;;;;;15.13;78.51;101519.25;4968336;28;20042;-64
2021/09/16 05:01:32;;;;;;;9.88;3.60;;;;;;;15.11;79.03;101511.28;4973234;28;20094;-64
2021/09/16 05:04:04;;;;;;;11.02;3.75;;;;;;;15.11;79.54;101508.53;4973419;28;20047;-64
2021/09/16 05:06:32;;;;;;;6.75;3.20;;;;;;;15.11;79.06;101514.03;4962125;28;20502;-64
2021/09/16 05:09:00;;;;;;;5.25;2.95;;;;;;;15.10;79.48;101506.06;4973282;28;20486;-65
2021/09/16 05:11:28;;;;;;;9.43;4.10;;;;;;;15.12;79.14;101512.91;4973182;28;20078;-61
2021/09/16 05:13:56;;;;;;;7.40;3.35;;;;;;;15.07;79.39;101525.84;4972065;28;20085;-62
2021/09/16 05:16:24;;;;;;;10.15;3.75;;;;;;;15.06;79.11;101522.28;4963944;28;20047;-61
2021/09/16 05:18:52;;;;;;;5.28;2.78;;;;;;;15.05;79.75;101509.66;4972705;28;20470;-62
2021/09/16 05:21:21;;;;;;;6.53;3.75;;;;;;;15.03;79.54;101514.63;4972084;28;20498;-64
2021/09/16 05:23:49;;;;;;;8.60;3.15;;;;;;;15.05;80.32;101519.81;4971883;28;20561;-64
2021/09/16 05:26:17;;;;;;;7.15;3.20;;;;;;;15.04;80.13;101523.69;4970554;28;20035;-64
2021/09/16 05:28:45;;;;;;;8.20;3.70;;;;;;;15.03;79.72;101527.50;4970963;28;20039;-64
2021/09/16 05:31:13;;;;;;;8.68;3.60;;;;;;;15.06;79.85;101532.47;4973625;28;20867;-63
2021/09/16 05:33:41;;;;;;;8.23;3.40;;;;;;;15.05;79.35;101528.88;4973171;28;20050;-64
2021/09/16 05:36:09;;;;;;;9.18;4.05;;;;;;;15.02;79.66;101528.63;4974380;28;20553;-64
2021/09/16 05:38:37;;;;;;;8.63;3.50;;;;;;;15.03;80.04;101527.50;4967108;28;20506;-62
2021/09/16 05:41:05;;;;;;;8.32;3.20;;;;;;;15.12;80.40;101534.06;4972755;28;20070;-62
2021/09/16 05:43:33;;;;;;;9.55;4.20;;;;;;;15.06;79.89;101544.25;4972938;28;20875;-63
2021/09/16 05:46:01;;;;;;;5.60;2.60;;;;;;;15.05;80.32;101542.59;4966093;28;20047;-63
2021/09/16 05:48:29;;;;;;;10.23;4.60;;;;;;;15.04;79.99;101548.38;4971254;28;20089;-63
2021/09/16 05:50:57;;;;;;;7.35;3.22;;;;;;;15.09;80.98;101548.34;4972099;28;20520;-64
2021/09/16 05:53:26;;;;;;;5.60;3.00;;;;;;;15.12;81.72;101556.03;4971276;28;20391;-60
2021/09/16 05:55:54;;;;;;;8.73;4.03;;;;;;;15.10;80.69;101555.47;4972340;28;20074;-61
2021/09/16 05:58:23;;;;;;;10.75;4.05;;;;;;;15.23;82.32;101554.06;4968798;28;20035;-64
2021/09/16 06:00:51;;;;;;;13.52;4.72;;;;;;;15.19;81.28;101552.97;4969757;28;20053;-64
2021/09/16 06:03:19;;;;;;;9.55;5.00;;;;;;;15.19;80.76;101553.78;4972403;28;20517;-64
2021/09/16 06:05:48;;;;;;;6.78;4.20;;;;;;;15.07;80.53;101556.84;4972371;28;20494;-61
2021/09/16 06:08:16;;;;;;;8.13;3.72;;;;;;;15.08;81.70;101553.03;3939561;28;10000144;-64
2021/09/16 06:10:44;;;;;;;13.25;4.50;;;;;;;15.10;81.97;101560.97;4969127;28;20058;-64
2021/09/16 06:13:12;;;;;;;10.43;5.45;;;;;;;15.05;81.17;101570.03;4970040;28;20093;-63
2021/09/16 06:15:40;;;;;;;11.63;4.60;;;;;;;15.18;82.19;101567.81;4970403;28;20050;-64
2021/09/16 06:18:08;;;;;;;12.65;4.78;;;;;;;15.10;81.44;101566.44;4961122;28;20043;-61
2021/09/16 06:20:36;;;;;;;10.43;5.70;;;;;;;15.17;81.64;101575.22;4969323;28;20490;-64
2021/09/16 06:23:04;;;;;;;12.30;4.55;;;;;;;15.09;81.86;101564.81;4970365;28;20058;-64
2021/09/16 06:25:32;;;;;;;19.00;6.07;;;;;;;15.05;82.00;101569.22;4969851;28;20054;-64
2021/09/16 06:28:00;;;;;;;11.82;4.47;;;;;;;15.02;82.27;101567.84;4966792;28;20056;-63
2021/09/16 06:30:29;;;;;;;14.73;8.57;;;;;;;15.06;82.74;101568.94;4968057;28;20101;-64
2021/09/16 06:32:57;;;;;;;12.68;6.10;;;;;;;15.05;82.25;101571.97;4968360;28;20407;-64
2021/09/16 06:35:25;;;;;;;11.73;6.38;;;;;;;15.01;82.13;101573.63;4969588;28;20066;-65
2021/09/16 06:37:53;;;;;;;12.93;6.03;;;;;;;15.03;82.22;101571.41;4969882;28;20075;-64
2021/09/16 06:40:21;;;;;;;9.85;5.40;;;;;;;14.99;82.54;101581.34;4982795;28;20059;-64
2021/09/16 06:42:50;;;;;;;11.45;5.20;;;;;;;15.02;82.40;101576.09;4969917;28;20118;-64
2021/09/16 06:45:18;;;;;;;11.40;5.30;;;;;;;15.07;82.60;101576.06;4969412;28;20051;-64
2021/09/16 06:47:58;;;;;;;11.63;5.28;;;;;;;15.11;82.24;101579.09;4957025;28;20517;-64
2021/09/16 06:50:26;;;;;;;7.70;4.90;;;;;;;15.09;82.46;101570.31;4961037;28;20054;-59
2021/09/16 06:52:54;;;;;;;11.23;5.55;;;;;;;15.09;82.34;101571.13;4975299;28;20912;-63
2021/09/16 06:55:22;;;;;;;10.60;5.95;;;;;;;15.08;82.74;101574.13;4975386;28;20051;-62
2021/09/16 06:57:49;;;;;;;12.43;5.82;;;;;;;15.10;82.73;101571.94;4974730;28;20118;-61
2021/09/16 07:00:17;;;;;;;12.02;5.70;;;;;;;15.08;82.88;101579.63;4965031;28;20051;-61
2021/09/16 07:02:49;;;;;;;10.88;5.63;;;;;;;15.11;82.74;101579.09;4973122;28;20043;-59
2021/09/16 07:05:18;;;;;;;14.07;6.28;;;;;;;15.09;83.31;101584.84;4975106;28;20506;-62
2021/09/16 07:07:46;;;;;;;11.48;5.78;;;;;;;15.10;82.47;101581.03;4974644;28;20079;-58
2021/09/16 07:10:13;;;;;;;11.15;5.47;;;;;;;15.09;82.92;101584.84;4971587;28;20572;-60
2021/09/16 07:12:41;;;;;;;9.90;5.97;;;;;;;15.10;82.96;101582.91;4973668;28;20047;-60
2021/09/16 07:15:09;;;;;;;10.88;5.70;;;;;;;15.10;83.07;101588.41;4975091;28;20123;-60
2021/09/16 07:17:37;;;;;;;13.23;6.30;;;;;;;15.12;83.02;101594.44;4974063;28;20054;-57
2021/09/16 07:20:06;;;;;;;13.05;5.38;;;;;;;15.13;83.06;101599.66;4970730;28;20051;-61
2021/09/16 07:22:34;;;;;;;12.93;5.70;;;;;;;15.18;83.06;101600.75;4974908;28;20131;-58
2021/09/16 07:25:02;;;;;;;11.60;5.60;;;;;;;15.19;83.04;101596.91;4973274;28;20602;-59
2021/09/16 07:27:30;;;;;;;11.80;5.90;;;;;;;15.19;83.52;101596.91;4974383;28;20051;-60
2021/09/16 07:29:58;;;;;;;10.43;4.85;;;;;;;15.25;82.97;101593.00;4974140;28;20494;-61
2021/09/16 07:32:26;;;;;;;11.80;5.47;;;;;;;15.27;83.06;101599.91;4963316;28;20494;-61
2021/09/16 07:34:55;;;;;;;12.25;5.25;;;;;;;15.28;82.71;101607.03;4973213;28;20494;-60
2021/09/16 07:37:23;;;;;;;8.10;4.30;;;;;;;15.30;82.69;101602.06;4974300;28;20048;-61
2021/09/16 07:39:51;;;;;;;11.95;5.40;;;;;;;15.37;82.98;101603.69;4981023;28;20043;-60
2021/09/16 07:42:19;;;;;;;13.43;5.38;;;;;;;15.40;82.64;101608.63;4973015;28;20059;-61
2021/09/16 07:44:46;;;;;;;11.05;4.57;;;;;;;15.49;82.44;101595.94;4974721;28;20545;-61
2021/09/16 07:47:14;;;;;;;8.77;4.43;;;;;;;15.45;81.88;101600.38;4973431;28;20053;-60
2021/09/16 07:49:44;;;;;;;8.45;4.38;;;;;;;15.41;82.49;101602.03;4974647;28;20109;-60
2021/09/16 07:52:13;;;;;;;10.20;4.85;;;;;;;15.45;82.58;101594.88;4968589;28;20097;-60
2021/09/16 07:54:42;;;;;;;7.22;3.90;;;;;;;15.46;81.93;101602.81;4969011;28;20046;-59
2021/09/16 07:57:09;;;;;;;11.02;4.18;;;;;;;15.48;82.23;101605.28;4974202;28;20520;-60
2021/09/16 07:59:37;;;;;;;9.90;4.10;;;;;;;15.48;82.20;101605.28;4987046;28;20525;-60
2021/09/16 08:02:05;;;;;;;9.63;4.28;;;;;;;15.49;82.32;101607.78;4968174;28;20549;-60
2021/09/16 08:04:33;;;;;;;10.30;4.10;;;;;;;15.51;81.69;101611.06;4974133;28;20049;-60
2021/09/16 08:07:01;;;;;;;10.80;4.32;;;;;;;15.59;81.92;101606.06;4972607;28;20061;-59
2021/09/16 08:09:29;;;;;;;10.05;4.43;;;;;;;15.61;82.07;101606.59;4972470;28;20114;-56
2021/09/16 08:11:56;;;;;;;8.68;4.20;;;;;;;15.59;81.50;101606.91;4972533;28;20038;-59
2021/09/16 08:14:24;;;;;;;9.75;3.90;;;;;;;15.57;81.50;101600.84;4974137;28;20059;-60
2021/09/16 08:16:52;;;;;;;10.05;4.50;;;;;;;15.61;82.20;101614.84;4973952;28;20039;-60
2021/09/16 08:19:21;;;;;;;11.32;4.47;;;;;;;15.64;81.98;101612.34;4968620;28;20039;-60
2021/09/16 08:21:49;;;;;;;7.70;4.05;;;;;;;15.65;81.90;101616.72;4969917;28;20102;-59
2021/09/16 08:24:17;;;;;;;9.95;4.10;;;;;;;15.70;82.52;101621.41;4973694;28;20038;-59
2021/09/16 08:26:44;;;;;;;10.23;4.45;;;;;;;15.76;82.37;101621.13;4988513;28;20058;-60
2021/09/16 08:29:12;;;;;;;12.52;5.18;;;;;;;15.76;82.35;101623.03;4973554;28;20556;-60
2021/09/16 08:31:44;;;;;;;10.75;4.50;;;;;;;15.76;82.27;101612.88;4988005;28;20047;-58
2021/09/16 08:34:12;;;;;;;10.50;4.72;;;;;;;15.79;82.48;101616.16;4973880;28;20133;-61
2021/09/16 08:36:41;;;;;;;9.13;4.85;;;;;;;15.83;83.41;101617.25;4973513;28;20453;-57
2021/09/16 08:39:09;;;;;;;8.23;4.18;;;;;;;15.88;82.86;101614.47;4973347;28;20043;-60
2021/09/16 08:41:37;;;;;;;9.35;4.35;;;;;;;15.93;82.44;101618.00;4971599;28;20604;-60
2021/09/16 08:44:05;;;;;;;9.85;3.50;;;;;;;15.97;82.08;101618.25;4972304;28;20042;-60
2021/09/16 08:46:33;;;;;;;8.98;3.55;;;;;;;16.00;81.92;101619.59;4973604;28;20078;-61
2021/09/16 08:49:02;;;;;;;10.27;3.65;;;;;;;16.03;80.91;101625.34;4972839;28;20047;-60
2021/09/16 08:51:30;;;;;;;7.50;2.72;;;;;;;16.05;80.57;101628.63;4962489;28;20055;-61
2021/09/16 08:53:58;;;;;;;9.13;3.20;;;;;;;16.07;79.57;101629.19;4973102;28;20047;-60
2021/09/16 08:56:27;;;;;;;11.98;2.78;;;;;;;16.10;79.56;101634.09;4956252;28;20049;-61
2021/09/16 08:59:01;;;;;;;9.73;2.85;;;;;;;16.14;79.56;101632.44;4972219;28;20054;-61
2021/09/16 09:01:29;;;;;;;13.30;3.20;;;;;;;16.15;78.55;101634.06;4965321;28;20545;-61
2021/09/16 09:03:57;;;;;;;7.18;2.80;;;;;;;16.13;78.17;101628.00;4961034;28;20043;-60
2021/09/16 09:06:32;;;;;;;10.48;2.92;;;;;;;16.18;77.96;101627.97;4970618;28;20042;-60
2021/09/16 09:09:17;;;;;;;10.77;2.95;;;;;;;16.25;77.93;101630.41;4970518;28;20117;-59
2021/09/16 09:12:08;;;;;;;7.28;2.92;;;;;;;16.32;77.97;101627.34;4969549;28;20042;-60
2021/09/16 09:14:41;;;;;;;8.32;3.20;;;;;;;16.37;78.16;101639.13;4973136;28;20058;-60
2021/09/16 09:17:24;;;;;;;10.23;3.75;;;;;;;16.43;77.92;101634.41;4971753;28;20093;-59
2021/09/16 09:19:58;;;;;;;12.52;3.30;;;;;;;16.44;78.40;101632.47;4971403;28;20102;-59
2021/09/16 09:22:31;;;;;;;8.95;2.95;;;;;;;16.44;78.63;101638.78;4960187;28;20054;-60
2021/09/16 09:25:06;;;;;;;9.57;3.05;;;;;;;16.47;78.60;101645.66;4972825;28;20042;-60
2021/09/16 09:27:39;;;;;;;11.80;3.50;;;;;;;16.49;78.11;101641.50;4967932;28;20050;-60
2021/09/16 09:30:19;;;;;;;7.75;2.63;;;;;;;16.54;77.92;101646.13;4970965;28;20047;-59
2021/09/16 09:32:58;;;;;;;8.45;2.92;;;;;;;16.54;75.81;101633.19;4961285;28;20046;-60
2021/09/16 09:35:30;;;;;;;7.03;2.47;;;;;;;16.56;76.04;101636.47;4972537;28;20063;-60
2021/09/16 09:38:21;;;;;;;6.20;2.90;;;;;;;16.60;75.85;101634.00;4972653;28;20106;-61
2021/09/16 09:40:54;;;;;;;5.05;2.47;;;;;;;16.60;74.65;101634.81;4972063;28;20056;-61
2021/09/16 09:43:29;;;;;;;6.50;2.53;;;;;;;16.65;74.61;101649.63;4965103;28;20051;-60
2021/09/16 09:46:10;;;;;;;9.13;2.67;;;;;;;16.67;74.19;101641.88;4972859;28;20394;-61
2021/09/16 09:48:40;;;;;;;6.03;2.55;;;;;;;16.67;73.45;101648.25;4974426;28;20050;-61
2021/09/16 09:51:09;;;;;;;11.55;2.80;;;;;;;16.72;74.25;101641.88;4978275;28;20047;-61
2021/09/16 09:53:42;;;;;;;9.88;2.80;;;;;;;16.75;73.29;101633.84;4969709;28;20054;-62
2021/09/16 09:56:30;;;;;;;13.20;3.55;;;;;;;16.82;74.54;101642.59;4972605;28;20066;-60
2021/09/16 09:58:57;;;;;;;8.70;2.92;;;;;;;16.86;74.17;101647.53;4973034;28;20049;-60
2021/09/16 10:01:31;;;;;;;7.22;2.65;;;;;;;16.88;73.87;101640.63;4972646;28;20042;-60
2021/09/16 10:04:00;;;;;;;12.05;2.92;;;;;;;16.86;73.70;101647.53;4984719;28;20771;-60
2021/09/16 10:06:37;;;;;;;8.70;2.78;;;;;;;16.85;73.07;101654.97;4971485;28;20133;-56
2021/09/16 10:09:13;;;;;;;6.28;2.75;;;;;;;16.88;72.84;101648.88;4973697;28;20047;-63
2021/09/16 10:11:47;;;;;;;6.78;2.90;;;;;;;16.92;73.31;101649.13;4970767;28;20059;-57
2021/09/16 10:14:15;;;;;;;6.88;2.80;;;;;;;16.92;73.41;101658.22;4971661;28;20053;-61
2021/09/16 10:16:43;;;;;;;7.30;2.60;;;;;;;16.93;72.72;101661.78;4972691;28;20077;-60
2021/09/16 10:19:12;;;;;;;7.80;2.97;;;;;;;16.97;72.43;101655.41;4972444;28;20047;-61
2021/09/16 10:21:40;;;;;;;6.88;2.60;;;;;;;17.03;72.17;101656.19;4971076;28;20054;-59
2021/09/16 10:24:13;;;;;;;7.07;2.75;;;;;;;17.06;71.94;101657.53;4970118;28;20122;-61
2021/09/16 10:26:49;;;;;;;5.72;2.40;;;;;;;17.10;70.81;101662.16;4959797;28;20118;-61
2021/09/16 10:29:29;;;;;;;9.57;2.50;;;;;;;17.08;70.87;101647.88;4975094;28;20101;-60
2021/09/16 10:32:06;;;;;;;7.93;2.70;;;;;;;17.11;71.30;101647.28;4976066;28;20051;-61
2021/09/16 10:35:00;;;;;;;11.85;3.10;;;;;;;17.14;70.70;101643.94;4974650;28;20047;-61
2021/09/16 10:37:36;;;;;;;8.88;2.40;;;;;;;17.19;70.61;101651.31;4975554;28;20038;-61
2021/09/16 10:40:18;;;;;;;;;;;;;;;17.19;70.10;101649.38;4976381;28;20043;-60
2021/09/16 10:42:50;;;;;;;6.80;2.55;;;;;;;17.19;70.76;101643.06;4976351;28;19930;-61
2021/09/16 10:45:31;;;;;;;5.28;2.55;;;;;;;17.22;70.20;101636.94;4974891;28;20070;-60
2021/09/16 10:48:14;;;;;;;6.25;2.80;;;;;;;17.27;69.93;101636.91;4981596;28;20501;-61
2021/09/16 10:50:46;;;;;;;7.32;3.00;;;;;;;17.29;69.83;101636.59;4975356;28;20051;-61
2021/09/16 10:53:29;;;;;;;8.07;2.78;;;;;;;17.32;70.09;101645.13;4974474;28;20057;-61
2021/09/16 10:55:58;;;;;;;8.07;2.90;;;;;;;17.37;69.98;101639.56;4966618;28;20114;-60
2021/09/16 10:58:52;;;;;;;7.78;2.63;;;;;;;17.44;68.23;101631.75;5069032;28;20391;-61
2021/09/16 11:02:11;;;;;;;8.05;2.50;;;;;;;17.54;68.62;101639.06;5069037;28;20386;-61
2021/09/16 11:05:20;;;;;;;8.05;3.30;;;;;;;17.60;68.06;101637.88;5105182;27;1375992;-59
2021/09/16 11:07:55;;;;;;;7.32;2.42;;;;;;;17.66;69.07;101633.13;5022543;28;20046;-61
2021/09/16 11:10:24;;;;;;;6.43;2.45;;;;;;;17.70;68.67;101628.63;5019459;28;20046;-59
2021/09/16 11:13:04;;;;;;;8.20;2.83;;;;;;;17.71;68.47;101637.75;5026512;28;20157;-59
2021/09/16 11:15:33;;;;;;;11.88;3.20;;;;;;;17.70;69.29;101636.91;5012955;28;20053;-60
2021/09/16 11:18:02;;;;;;;7.40;2.92;;;;;;;17.76;68.70;101624.72;5020716;28;20153;-60
2021/09/16 11:20:45;;;;;;;7.00;2.67;;;;;;;17.84;69.20;101632.34;5068768;28;20382;-60
2021/09/16 11:23:38;;;;;;;6.38;2.40;;;;;;;17.87;68.55;101631.75;5089882;27;1392343;-60
2021/09/16 11:26:21;;;;;;;7.35;2.40;;;;;;;17.82;68.22;101640.09;5069127;28;20383;-61
2021/09/16 11:29:09;;;;;;;9.52;2.78;;;;;;;17.83;68.10;101643.69;5068666;28;20395;-60
2021/09/16 11:31:48;;;;;;;7.20;2.53;;;;;;;17.81;67.67;101643.97;5068726;28;20395;-60
2021/09/16 11:34:28;;;;;;;9.57;2.80;;;;;;;17.79;67.27;101648.09;5088895;28;20412;-62
2021/09/16 11:37:16;;;;;;;8.68;2.80;;;;;;;17.83;67.88;101647.25;5089279;27;1370183;-61